createdAt,value
2023-05-05T00:02:19.565Z,7.70
2023-05-05T00:04:47.426Z,7.87
2023-05-05T00:07:16.721Z,7.13
2023-05-05T00:09:44.634Z,7.40
2023-05-05T00:12:12.464Z,8.17
2023-05-05T00:14:40.393Z,7.60
2023-05-05T00:17:08.310Z,7.67
2023-05-05T00:19:36.201Z,7.97
2023-05-05T00:22:04.116Z,8.60
2023-05-05T00:24:33.340Z,8.23
2023-05-05T00:27:02.227Z,8.37
2023-05-05T00:29:30.075Z,8.97
2023-05-05T00:31:57.884Z,8.13
2023-05-05T00:34:25.812Z,8.43
2023-05-05T00:36:54.003Z,9.63
2023-05-05T00:39:21.822Z,8.63
2023-05-05T00:41:51.066Z,8.63
2023-05-05T00:44:18.912Z,9.37
2023-05-05T00:46:46.783Z,9.40
2023-05-05T00:49:14.866Z,9.83
2023-05-05T00:51:42.692Z,9.63
2023-05-05T00:54:10.511Z,10.17
2023-05-05T00:56:38.352Z,10.17
2023-05-05T00:59:07.599Z,9.47
2023-05-05T01:01:35.463Z,10.70
2023-05-05T01:04:03.324Z,10.43
2023-05-05T01:06:43.560Z,10.80
2023-05-05T01:09:19.643Z,11.17
2023-05-05T01:11:53.326Z,11.17
2023-05-05T01:14:26.168Z,11.33
2023-05-05T01:16:58.535Z,10.70
2023-05-05T01:19:52.488Z,10.70
2023-05-05T01:22:24.906Z,11.63
2023-05-05T01:25:08.822Z,10.87
2023-05-05T01:27:49.847Z,11.63
2023-05-05T01:30:31.808Z,11.47
2023-05-05T01:33:04.211Z,11.47
2023-05-05T01:35:36.810Z,11.37
2023-05-05T01:38:07.866Z,11.30
2023-05-05T01:40:40.372Z,11.53
2023-05-05T01:43:09.174Z,12.23
2023-05-05T01:45:39.441Z,12.40
2023-05-05T01:48:09.549Z,11.77
2023-05-05T01:50:38.097Z,13.07
2023-05-05T01:53:06.364Z,12.93
2023-05-05T01:55:34.960Z,13.40
2023-05-05T01:58:03.347Z,13.50
2023-05-05T02:00:31.826Z,13.70
2023-05-05T02:03:00.863Z,12.87
2023-05-05T02:05:32.055Z,13.10
2023-05-05T02:08:00.399Z,12.73
2023-05-05T02:10:29.012Z,13.60
2023-05-05T02:12:57.484Z,14.33
2023-05-05T02:15:26.404Z,14.50
2023-05-05T02:17:54.913Z,14.50
2023-05-05T02:20:23.892Z,14.03
2023-05-05T02:22:54.044Z,13.93
2023-05-05T02:25:22.182Z,13.53
2023-05-05T02:27:50.616Z,13.90
2023-05-05T02:30:21.160Z,14.33
2023-05-05T02:32:51.934Z,14.47
2023-05-05T02:35:22.471Z,14.47
2023-05-05T02:38:00.168Z,16.97
2023-05-05T02:40:29.040Z,16.20
2023-05-05T02:42:57.506Z,15.73
2023-05-05T02:45:26.904Z,14.67
2023-05-05T02:47:54.836Z,14.70
2023-05-05T02:50:22.828Z,15.03
2023-05-05T02:52:50.708Z,14.17
2023-05-05T02:55:20.076Z,14.27
2023-05-05T02:57:51.006Z,14.93
2023-05-05T03:00:25.411Z,14.77
2023-05-05T03:02:59.355Z,14.50
2023-05-05T03:05:31.628Z,14.40
2023-05-05T03:08:03.772Z,14.13
2023-05-05T03:10:51.665Z,14.40
2023-05-05T03:13:22.046Z,14.17
2023-05-05T03:15:53.043Z,15.43
2023-05-05T03:18:21.773Z,14.40
2023-05-05T03:20:49.811Z,14.87
2023-05-05T03:23:20.842Z,14.90
2023-05-05T03:25:51.804Z,14.40
2023-05-05T03:28:19.664Z,15.87
2023-05-05T03:30:47.514Z,15.40
2023-05-05T03:33:15.399Z,15.07
2023-05-05T03:35:43.272Z,14.90
2023-05-05T03:38:11.115Z,15.43
2023-05-05T03:40:44.253Z,14.80
2023-05-05T03:43:13.872Z,14.57
2023-05-05T03:45:41.745Z,14.30
2023-05-05T03:48:10.074Z,14.37
2023-05-05T03:50:37.945Z,14.50
2023-05-05T03:53:05.745Z,13.80
2023-05-05T03:55:33.575Z,13.87
2023-05-05T03:58:01.909Z,12.60
2023-05-05T04:00:31.128Z,13.53
2023-05-05T04:02:59.034Z,13.77
2023-05-05T04:05:27.404Z,13.97
2023-05-05T04:07:55.246Z,13.13
2023-05-05T04:10:23.108Z,12.63
2023-05-05T04:12:51.012Z,13.47
2023-05-05T04:15:18.894Z,13.03
2023-05-05T04:17:49.501Z,12.67
2023-05-05T04:20:17.595Z,12.10
2023-05-05T04:22:46.029Z,12.50
2023-05-05T04:25:13.906Z,12.83
2023-05-05T04:27:42.050Z,13.00
2023-05-05T04:30:10.748Z,12.10
2023-05-05T04:32:38.620Z,12.90
2023-05-05T04:35:09.102Z,12.87
2023-05-05T04:37:36.944Z,12.93
2023-05-05T04:40:05.262Z,13.30
2023-05-05T04:42:33.595Z,12.00
2023-05-05T04:45:01.418Z,12.60
2023-05-05T04:47:29.360Z,12.43
2023-05-05T04:49:57.262Z,13.47
2023-05-05T04:52:26.445Z,12.80
2023-05-05T04:54:55.013Z,12.37
2023-05-05T04:57:22.938Z,11.83
2023-05-05T04:59:51.077Z,10.87
2023-05-05T05:02:19.011Z,11.33
2023-05-05T05:04:46.968Z,11.70
2023-05-05T05:07:15.604Z,11.17
2023-05-05T05:09:44.817Z,11.17
2023-05-05T05:12:12.629Z,10.80
2023-05-05T05:14:41.125Z,10.13
2023-05-05T05:17:08.975Z,10.20
2023-05-05T05:19:36.894Z,9.70
2023-05-05T05:22:05.022Z,9.47
2023-05-05T05:24:34.748Z,9.20
2023-05-05T05:27:09.814Z,8.93
2023-05-05T05:29:38.146Z,9.33
2023-05-05T05:32:06.663Z,8.53
2023-05-05T05:34:34.711Z,8.30
2023-05-05T05:37:02.899Z,8.20
2023-05-05T05:39:30.737Z,8.53
2023-05-05T05:41:58.544Z,7.67
2023-05-05T05:44:27.786Z,8.07
2023-05-05T05:46:56.267Z,7.63
2023-05-05T05:49:24.167Z,7.10
2023-05-05T05:51:52.029Z,7.10
2023-05-05T05:54:19.882Z,7.30
2023-05-05T05:56:47.778Z,7.07
2023-05-05T05:59:15.641Z,6.83
2023-05-05T06:01:44.812Z,6.20
2023-05-05T06:04:13.313Z,6.83
2023-05-05T06:06:41.402Z,6.10
2023-05-05T06:09:09.234Z,6.80
2023-05-05T06:11:37.158Z,6.33
2023-05-05T06:14:05.034Z,5.90
2023-05-05T06:16:33.070Z,5.80
2023-05-05T06:19:02.446Z,5.77
2023-05-05T06:21:30.593Z,5.80
2023-05-05T06:23:58.436Z,6.13
2023-05-05T06:26:26.319Z,5.73
2023-05-05T06:28:54.198Z,5.77
2023-05-05T06:31:22.565Z,5.40
2023-05-05T06:33:50.675Z,5.53
2023-05-05T06:36:19.939Z,5.90
2023-05-05T06:38:48.096Z,5.30
2023-05-05T06:41:16.093Z,5.30
2023-05-05T06:43:45.199Z,5.63
2023-05-05T06:46:13.174Z,5.20
2023-05-05T06:48:41.037Z,5.50
2023-05-05T06:51:10.017Z,5.43
2023-05-05T06:53:39.206Z,5.27
2023-05-05T06:56:07.288Z,5.37
2023-05-05T06:58:35.110Z,5.10
2023-05-05T07:01:04.181Z,5.33
2023-05-05T07:03:32.230Z,5.00
2023-05-05T07:06:00.139Z,4.50
2023-05-05T07:08:28.008Z,4.60
2023-05-05T07:10:57.217Z,4.63
2023-05-05T07:13:25.093Z,4.67
2023-05-05T07:15:52.955Z,4.37
2023-05-05T07:18:21.546Z,4.60
2023-05-05T07:20:50.211Z,4.87
2023-05-05T07:23:18.302Z,4.50
2023-05-05T07:25:46.238Z,4.33
2023-05-05T07:28:15.527Z,5.30
2023-05-05T07:30:43.402Z,4.57
2023-05-05T07:33:11.803Z,4.30
2023-05-05T07:35:39.722Z,4.63
2023-05-05T07:38:08.725Z,4.53
2023-05-05T07:40:38.106Z,3.60
2023-05-05T07:43:06.006Z,3.63
2023-05-05T07:45:35.258Z,4.10
2023-05-05T07:48:03.211Z,3.80
2023-05-05T07:50:31.090Z,3.87
2023-05-05T07:53:10.837Z,3.87
2023-05-05T07:55:42.085Z,3.80
2023-05-05T07:58:11.086Z,3.90
2023-05-05T08:00:40.930Z,4.37
2023-05-05T08:03:11.324Z,3.90
2023-05-05T08:05:40.710Z,3.60
2023-05-05T08:08:08.862Z,3.73
2023-05-05T08:10:37.138Z,3.90
2023-05-05T08:13:05.165Z,4.17
2023-05-05T08:15:33.291Z,4.43
2023-05-05T08:18:02.555Z,4.80
2023-05-05T08:20:30.964Z,5.03
2023-05-05T08:22:58.808Z,4.87
2023-05-05T08:25:27.547Z,4.50
2023-05-05T08:27:55.731Z,4.60
2023-05-05T08:30:23.603Z,4.30
2023-05-05T08:32:51.607Z,4.40
2023-05-05T08:35:21.272Z,4.73
2023-05-05T08:37:49.118Z,4.40
2023-05-05T08:40:16.969Z,4.47
2023-05-05T08:42:45.867Z,4.70
2023-05-05T08:45:13.865Z,4.73
2023-05-05T08:47:43.413Z,4.67
2023-05-05T08:50:12.456Z,4.90
2023-05-05T08:52:44.573Z,5.00
2023-05-05T08:55:20.643Z,4.77
2023-05-05T08:57:53.772Z,5.03
2023-05-05T09:00:22.420Z,4.90
2023-05-05T09:02:51.966Z,4.87
2023-05-05T09:05:20.043Z,5.70
2023-05-05T09:07:49.319Z,5.57
2023-05-05T09:10:17.309Z,5.40
2023-05-05T09:12:45.495Z,5.57
2023-05-05T09:15:15.012Z,5.40
2023-05-05T09:17:43.447Z,4.70
2023-05-05T09:20:12.604Z,4.93
2023-05-05T09:22:41.598Z,5.10
2023-05-05T09:25:12.675Z,4.43
2023-05-05T09:27:41.971Z,4.87
2023-05-05T09:30:11.038Z,4.93
2023-05-05T09:32:46.563Z,4.37
2023-05-05T09:35:14.974Z,4.03
2023-05-05T09:37:43.077Z,4.53
2023-05-05T09:40:16.551Z,4.70
2023-05-05T09:42:45.205Z,4.33
2023-05-05T09:45:27.757Z,4.37
2023-05-05T09:48:00.223Z,4.73
2023-05-05T09:50:30.937Z,4.53
2023-05-05T09:53:00.170Z,4.73
2023-05-05T09:55:31.061Z,4.20
2023-05-05T09:57:59.505Z,5.07
2023-05-05T10:00:39.637Z,4.80
2023-05-05T10:03:08.284Z,4.67
2023-05-05T10:05:48.241Z,4.73
2023-05-05T10:08:16.230Z,4.23
2023-05-05T10:10:48.813Z,5.07
2023-05-05T10:13:16.917Z,4.67
2023-05-05T10:15:48.766Z,4.80
2023-05-05T10:18:24.466Z,4.37
2023-05-05T10:20:58.793Z,4.90
2023-05-05T10:23:32.625Z,4.83
2023-05-05T10:26:03.636Z,4.23
2023-05-05T10:28:35.020Z,4.20
2023-05-05T10:31:16.220Z,4.20
2023-05-05T10:33:55.604Z,4.33
2023-05-05T10:36:24.207Z,4.33
2023-05-05T10:38:56.527Z,4.40
2023-05-05T10:41:26.220Z,4.40
2023-05-05T10:43:55.496Z,4.50
2023-05-05T10:46:23.800Z,4.20
2023-05-05T10:48:57.963Z,4.23
2023-05-05T10:51:40.588Z,3.90
2023-05-05T10:54:13.528Z,4.30
2023-05-05T10:56:45.175Z,4.33
2023-05-05T10:59:44.203Z,4.30
2023-05-05T11:02:25.390Z,5.30
2023-05-05T11:05:15.110Z,4.50
2023-05-05T11:07:43.440Z,4.37
2023-05-05T11:10:12.501Z,4.03
2023-05-05T11:13:22.107Z,4.23
2023-05-05T11:15:51.151Z,3.90
2023-05-05T11:18:39.199Z,4.43
2023-05-05T11:21:18.238Z,3.80
2023-05-05T11:23:47.519Z,4.03
2023-05-05T11:26:16.509Z,4.00
2023-05-05T11:29:02.983Z,3.90
2023-05-05T11:31:32.397Z,4.50
2023-05-05T11:34:25.882Z,4.10
2023-05-05T11:36:54.626Z,3.87
2023-05-05T11:39:25.100Z,4.07
2023-05-05T11:42:10.951Z,4.07
2023-05-05T11:44:40.631Z,4.37
2023-05-05T11:47:30.848Z,4.30
2023-05-05T11:49:59.227Z,4.03
2023-05-05T11:52:28.520Z,3.97
2023-05-05T11:55:02.436Z,3.70
2023-05-05T11:57:31.119Z,4.17
2023-05-05T12:00:02.422Z,4.20
2023-05-05T12:02:31.452Z,3.97
2023-05-05T12:05:00.820Z,4.03
2023-05-05T12:07:29.804Z,3.70
2023-05-05T12:09:57.746Z,3.73
2023-05-05T12:12:36.313Z,3.77
2023-05-05T12:15:06.742Z,3.57
2023-05-05T12:17:40.352Z,3.70
2023-05-05T12:20:10.311Z,4.17
2023-05-05T12:22:38.803Z,3.80
2023-05-05T12:25:08.775Z,4.00
2023-05-05T12:27:36.778Z,3.83
2023-05-05T12:30:17.670Z,4.13
2023-05-05T12:32:46.034Z,4.00
2023-05-05T12:35:14.744Z,3.57
2023-05-05T12:37:43.620Z,3.60
2023-05-05T12:40:45.393Z,3.67
2023-05-05T12:43:28.911Z,3.53
2023-05-05T12:46:06.191Z,3.77
2023-05-05T12:48:37.136Z,3.57
2023-05-05T12:51:16.156Z,3.23
2023-05-05T12:53:44.588Z,3.67
2023-05-05T12:56:46.146Z,3.83
2023-05-05T12:59:30.030Z,4.33
2023-05-05T13:02:01.540Z,4.60
2023-05-05T13:04:29.954Z,4.50
2023-05-05T13:07:10.717Z,3.53
2023-05-05T13:09:38.693Z,3.73
2023-05-05T13:12:08.326Z,3.53
2023-05-05T13:14:36.509Z,4.00
2023-05-05T13:17:06.040Z,4.00
2023-05-05T13:19:35.576Z,3.90
2023-05-05T13:22:03.430Z,4.13
2023-05-05T13:24:46.427Z,3.80
2023-05-05T13:27:19.210Z,3.87
2023-05-05T13:29:49.555Z,3.70
2023-05-05T13:32:18.963Z,3.83
2023-05-05T13:34:46.843Z,3.87
2023-05-05T13:37:14.702Z,4.30
2023-05-05T13:39:42.561Z,4.67
2023-05-05T13:42:10.433Z,4.87
2023-05-05T13:44:38.384Z,4.97
2023-05-05T13:47:06.684Z,4.63
2023-05-05T13:49:36.044Z,4.60
2023-05-05T13:52:03.931Z,4.83
2023-05-05T13:54:31.904Z,4.83
2023-05-05T13:57:00.175Z,4.80
2023-05-05T13:59:28.354Z,4.40
2023-05-05T14:01:56.224Z,4.60
2023-05-05T14:04:24.182Z,4.47
2023-05-05T14:06:53.570Z,5.00
2023-05-05T14:09:21.515Z,5.17
2023-05-05T14:11:49.387Z,5.07
2023-05-05T14:14:17.939Z,4.93
2023-05-05T14:16:48.519Z,4.63
2023-05-05T14:19:17.827Z,4.70
2023-05-05T14:21:45.758Z,4.60
2023-05-05T14:24:15.034Z,4.53
2023-05-05T14:26:42.880Z,4.37
2023-05-05T14:29:10.753Z,5.10
2023-05-05T14:31:38.646Z,4.83
2023-05-05T14:34:06.675Z,4.40
2023-05-05T14:36:34.829Z,4.53
2023-05-05T14:39:02.687Z,4.60
2023-05-05T14:41:31.964Z,4.73
2023-05-05T14:43:59.815Z,4.83
2023-05-05T14:46:28.089Z,4.40
2023-05-05T14:48:56.279Z,4.10
2023-05-05T14:51:24.142Z,4.53
2023-05-05T14:53:52.035Z,4.87
2023-05-05T14:56:21.877Z,4.47
2023-05-05T14:58:51.174Z,4.53
2023-05-05T15:01:20.678Z,4.70
2023-05-05T15:03:48.947Z,4.73
2023-05-05T15:06:17.220Z,4.43
2023-05-05T15:08:46.333Z,4.20
2023-05-05T15:11:14.845Z,4.63
2023-05-05T15:13:42.746Z,4.23
2023-05-05T15:16:11.958Z,4.87
2023-05-05T15:18:39.942Z,4.60
2023-05-05T15:21:08.038Z,4.80
2023-05-05T15:23:35.996Z,4.43
2023-05-05T15:26:04.361Z,4.80
2023-05-05T15:28:32.312Z,4.07
2023-05-05T15:31:01.907Z,4.27
2023-05-05T15:33:31.872Z,4.53
2023-05-05T15:35:59.807Z,3.87
2023-05-05T15:38:29.092Z,4.23
2023-05-05T15:40:57.029Z,4.20
2023-05-05T15:43:24.875Z,4.30
2023-05-05T15:45:55.023Z,4.10
2023-05-05T15:48:22.917Z,4.60
2023-05-05T15:50:52.127Z,4.20
2023-05-05T15:53:20.047Z,3.80
2023-05-05T15:55:47.873Z,4.17
2023-05-05T15:58:15.680Z,4.40
2023-05-05T16:00:43.491Z,4.27
2023-05-05T16:03:11.697Z,4.67
2023-05-05T16:05:39.570Z,4.27
2023-05-05T16:08:10.378Z,4.07
2023-05-05T16:10:38.496Z,4.20
2023-05-05T16:13:06.410Z,4.10
2023-05-05T16:15:35.525Z,3.47
2023-05-05T16:18:03.401Z,3.83
2023-05-05T16:20:31.289Z,4.00
2023-05-05T16:22:59.183Z,3.80
2023-05-05T16:25:28.501Z,3.63
2023-05-05T16:27:57.551Z,4.27
2023-05-05T16:30:25.423Z,4.87
2023-05-05T16:32:54.578Z,6.13
2023-05-05T16:35:23.328Z,6.57
2023-05-05T16:37:51.249Z,4.80
2023-05-05T16:40:19.565Z,4.10
2023-05-05T16:42:48.822Z,3.80
2023-05-05T16:45:16.693Z,3.77
2023-05-05T16:47:44.600Z,3.47
2023-05-05T16:50:12.680Z,3.43
2023-05-05T16:52:40.595Z,3.30
2023-05-05T16:55:09.278Z,3.70
2023-05-05T16:57:38.580Z,3.50
2023-05-05T17:00:12.301Z,3.07
2023-05-05T17:02:40.184Z,2.80
2023-05-05T17:05:08.937Z,2.90
2023-05-05T17:07:36.907Z,3.20
2023-05-05T17:10:05.312Z,3.27
2023-05-05T17:12:33.214Z,3.03
2023-05-05T17:15:01.074Z,3.40
2023-05-05T17:17:30.369Z,3.60
2023-05-05T17:22:33.491Z,2.90
2023-05-05T17:25:01.322Z,3.10
2023-05-05T17:27:29.179Z,3.07
2023-05-05T17:29:57.077Z,3.10
2023-05-05T17:32:25.978Z,3.70
2023-05-05T17:34:56.348Z,3.40
2023-05-05T17:37:24.169Z,3.43
2023-05-05T17:39:51.993Z,3.50
2023-05-05T17:42:22.991Z,3.50
2023-05-05T17:44:51.215Z,3.70
2023-05-05T17:47:22.295Z,3.20
2023-05-05T17:49:50.414Z,3.80
2023-05-05T17:52:19.602Z,3.53
2023-05-05T17:54:48.726Z,3.57
2023-05-05T17:57:17.587Z,4.13
2023-05-05T17:59:45.804Z,3.70
2023-05-05T18:02:13.711Z,3.80
2023-05-05T18:04:41.515Z,3.90
2023-05-05T18:07:10.432Z,3.90
2023-05-05T18:09:39.708Z,4.10
2023-05-05T18:12:08.115Z,4.47
2023-05-05T18:14:35.965Z,4.40
2023-05-05T18:17:04.739Z,4.67
2023-05-05T18:19:32.755Z,4.50
2023-05-05T18:22:00.613Z,4.30
2023-05-05T18:24:28.615Z,4.80
2023-05-05T18:26:58.687Z,4.47
2023-05-05T18:29:28.293Z,4.30
2023-05-05T18:31:56.353Z,4.10
2023-05-05T18:34:24.280Z,4.20
2023-05-05T18:36:54.319Z,4.70
2023-05-05T18:39:22.237Z,3.80
2023-05-05T18:41:50.333Z,4.00
2023-05-05T18:44:19.535Z,4.30
2023-05-05T18:46:48.016Z,4.20
2023-05-05T18:49:16.297Z,3.97
2023-05-05T18:51:44.278Z,4.27
2023-05-05T18:54:12.164Z,4.00
2023-05-05T18:56:40.015Z,4.30
2023-05-05T18:59:07.894Z,4.67
2023-05-05T19:01:37.093Z,5.37
2023-05-05T19:04:08.534Z,5.40
2023-05-05T19:06:40.849Z,5.37
2023-05-05T19:09:08.660Z,4.97
2023-05-05T19:11:36.813Z,4.93
2023-05-05T19:14:04.669Z,5.67
2023-05-05T19:16:32.514Z,4.93
2023-05-05T19:19:01.763Z,5.40
2023-05-05T19:21:29.583Z,5.90
2023-05-05T19:23:57.414Z,5.70
2023-05-05T19:26:26.274Z,5.67
2023-05-05T19:28:54.125Z,4.67
2023-05-05T19:31:22.401Z,5.23
2023-05-05T19:33:50.266Z,5.57
2023-05-05T19:36:19.574Z,4.93
2023-05-05T19:38:47.406Z,4.70
2023-05-05T19:41:15.429Z,4.20
2023-05-05T19:43:46.254Z,4.50
2023-05-05T19:46:14.097Z,4.30
2023-05-05T19:48:42.173Z,4.57
2023-05-05T19:51:10.047Z,4.17
2023-05-05T19:53:40.079Z,3.93
2023-05-05T19:56:07.985Z,4.17
2023-05-05T19:58:54.124Z,4.30
2023-05-05T20:01:21.982Z,4.30
2023-05-05T20:03:50.045Z,4.57
2023-05-05T20:06:17.976Z,4.90
2023-05-05T20:08:47.394Z,5.03
2023-05-05T20:11:16.355Z,4.73
2023-05-05T20:13:44.636Z,4.60
2023-05-05T20:16:12.831Z,5.27
2023-05-05T20:18:40.917Z,4.57
2023-05-05T20:21:08.727Z,4.70
2023-05-05T20:23:38.129Z,4.80
2023-05-05T20:26:07.789Z,4.13
2023-05-05T20:28:35.986Z,4.00
2023-05-05T20:31:03.904Z,4.00
2023-05-05T20:33:31.830Z,4.50
2023-05-05T20:35:59.721Z,4.53
2023-05-05T20:38:27.583Z,4.20
2023-05-05T20:40:55.829Z,4.20
2023-05-05T20:43:25.502Z,4.10
2023-05-05T20:45:53.338Z,4.33
2023-05-05T20:48:21.376Z,4.20
2023-05-05T20:50:51.135Z,4.00
2023-05-05T20:53:20.977Z,4.03
2023-05-05T20:55:49.850Z,4.33
2023-05-05T20:58:17.866Z,4.60
2023-05-05T21:00:47.137Z,4.70
2023-05-05T21:03:15.181Z,4.07
2023-05-05T21:05:43.285Z,4.40
2023-05-05T21:08:11.178Z,5.17
2023-05-05T21:10:39.062Z,5.00
2023-05-05T21:13:06.961Z,5.00
2023-05-05T21:15:38.682Z,5.43
2023-05-05T21:18:08.517Z,5.13
2023-05-05T21:20:36.434Z,5.97
2023-05-05T21:23:04.434Z,5.87
2023-05-05T21:25:32.444Z,6.20
2023-05-05T21:28:00.317Z,5.70
2023-05-05T21:30:28.399Z,6.13
2023-05-05T21:32:56.339Z,6.13
2023-05-05T21:35:27.829Z,6.50
2023-05-05T21:37:55.710Z,6.60
2023-05-05T21:40:23.565Z,6.10
2023-05-05T21:42:51.410Z,6.93
2023-05-05T21:45:19.396Z,6.60
2023-05-05T21:47:47.315Z,7.23
2023-05-05T21:50:15.220Z,6.80
2023-05-05T21:52:44.404Z,7.33
2023-05-05T21:55:12.392Z,6.70
2023-05-05T21:57:40.348Z,6.53
2023-05-05T22:00:09.765Z,7.30
2023-05-05T22:02:40.028Z,6.93
2023-05-05T22:05:09.390Z,7.00
2023-05-05T22:07:37.480Z,7.80
2023-05-05T22:10:07.861Z,7.63
2023-05-05T22:12:36.234Z,7.60
2023-05-05T22:15:04.247Z,7.50
2023-05-05T22:17:32.108Z,8.07
2023-05-05T22:19:59.996Z,8.60
2023-05-05T22:22:27.858Z,8.57
2023-05-05T22:24:55.762Z,9.13
2023-05-05T22:27:25.379Z,8.70
2023-05-05T22:29:53.341Z,8.40
2023-05-05T22:32:21.381Z,9.13
2023-05-05T22:34:49.283Z,9.80
2023-05-05T22:37:17.201Z,9.47
2023-05-05T22:39:45.051Z,9.40
2023-05-05T22:42:12.978Z,9.80
2023-05-05T22:44:42.193Z,9.87
2023-05-05T22:47:10.125Z,10.23
2023-05-05T22:49:38.008Z,9.30
2023-05-05T22:52:06.207Z,10.10
2023-05-05T22:54:34.085Z,10.37
2023-05-05T22:57:02.323Z,10.00
2023-05-05T22:59:30.197Z,9.97
2023-05-05T23:01:59.505Z,10.27
2023-05-05T23:04:27.429Z,9.40
2023-05-05T23:06:55.304Z,9.20
2023-05-05T23:09:23.152Z,10.17
2023-05-05T23:11:51.209Z,9.70
2023-05-05T23:14:19.551Z,9.93
2023-05-05T23:16:47.587Z,9.53
2023-05-05T23:19:16.824Z,10.67
2023-05-05T23:21:53.183Z,10.67
2023-05-05T23:24:21.821Z,10.23
2023-05-05T23:26:49.703Z,10.40
2023-05-05T23:29:17.537Z,11.17
2023-05-05T23:31:46.110Z,10.70
2023-05-05T23:34:14.112Z,11.00
2023-05-05T23:36:43.456Z,11.07
2023-05-05T23:39:11.452Z,11.10
2023-05-05T23:41:39.311Z,11.40
2023-05-05T23:44:07.159Z,11.30
2023-05-05T23:46:35.083Z,12.10
2023-05-05T23:49:02.963Z,12.07
2023-05-05T23:51:31.493Z,11.70
2023-05-05T23:54:01.167Z,12.20
2023-05-05T23:56:29.382Z,12.37
2023-05-05T23:58:57.225Z,12.10
